createdAt,value
2023-04-08T00:01:40.011Z,64.99
2023-04-08T00:04:09.610Z,64.30
2023-04-08T00:06:37.285Z,64.77
2023-04-08T00:09:04.047Z,65.64
2023-04-08T00:11:30.677Z,66.01
2023-04-08T00:13:57.419Z,67.18
2023-04-08T00:16:24.059Z,65.29
2023-04-08T00:18:51.222Z,67.65
2023-04-08T00:21:20.527Z,66.76
2023-04-08T00:23:47.631Z,67.46
2023-04-08T00:26:14.447Z,68.70
2023-04-08T00:28:41.250Z,69.87
2023-04-08T00:31:07.908Z,69.46
2023-04-08T00:33:34.634Z,69.83
2023-04-08T00:36:01.355Z,69.42
2023-04-08T00:38:28.001Z,69.00
2023-04-08T00:40:54.592Z,68.67
2023-04-08T00:43:21.410Z,68.82
2023-04-08T00:45:48.542Z,70.04
2023-04-08T00:48:15.523Z,71.00
2023-04-08T00:50:44.061Z,70.93
2023-04-08T00:53:10.962Z,69.80
2023-04-08T00:55:37.532Z,70.66
2023-04-08T00:58:04.204Z,69.67
2023-04-08T01:00:31.501Z,69.34
2023-04-08T01:03:27.227Z,71.20
2023-04-08T01:06:19.170Z,70.54
2023-04-08T01:08:46.602Z,70.73
2023-04-08T01:11:14.461Z,70.71
2023-04-08T01:13:43.346Z,69.05
2023-04-08T01:16:12.751Z,69.65
2023-04-08T01:18:41.703Z,69.56
2023-04-08T01:21:08.708Z,69.38
2023-04-08T01:24:02.238Z,69.75
2023-04-08T01:26:29.298Z,70.14
2023-04-08T01:28:59.477Z,69.75
2023-04-08T01:31:27.124Z,69.44
2023-04-08T01:34:01.485Z,69.27
2023-04-08T01:36:29.545Z,70.64
2023-04-08T01:38:56.804Z,70.76
2023-04-08T01:41:23.836Z,70.45
2023-04-08T01:43:51.947Z,69.70
2023-04-08T01:46:20.331Z,69.70
2023-04-08T01:48:48.874Z,68.26
2023-04-08T01:51:17.036Z,69.23
2023-04-08T01:53:44.336Z,70.08
2023-04-08T01:56:14.075Z,70.10
2023-04-08T01:58:49.215Z,70.07
2023-04-08T02:01:18.916Z,69.88
2023-04-08T02:03:47.686Z,70.24
2023-04-08T02:06:14.569Z,70.38
2023-04-08T02:08:41.146Z,70.00
2023-04-08T02:11:07.723Z,70.10
2023-04-08T02:13:34.626Z,69.36
2023-04-08T02:16:13.049Z,69.92
2023-04-08T02:18:44.731Z,69.22
2023-04-08T02:21:16.283Z,68.76
2023-04-08T02:23:49.349Z,69.60
2023-04-08T02:26:17.340Z,69.14
2023-04-08T02:28:44.861Z,70.38
2023-04-08T02:31:13.977Z,69.57
2023-04-08T02:33:41.411Z,70.89
2023-04-08T02:36:08.500Z,71.26
2023-04-08T02:38:35.369Z,71.32
2023-04-08T02:41:02.090Z,71.16
2023-04-08T02:43:34.520Z,71.65
2023-04-08T02:46:04.799Z,71.50
2023-04-08T02:48:32.288Z,71.35
2023-04-08T02:50:58.871Z,72.30
2023-04-08T02:53:25.642Z,71.61
2023-04-08T02:55:52.285Z,71.84
2023-04-08T02:58:18.909Z,69.95
2023-04-08T03:00:45.561Z,71.43
2023-04-08T03:03:12.277Z,70.22
2023-04-08T03:05:39.067Z,70.45
2023-04-08T03:08:06.854Z,70.48
2023-04-08T03:10:34.650Z,71.06
2023-04-08T03:13:01.276Z,69.56
2023-04-08T03:15:27.859Z,70.41
2023-04-08T03:17:54.446Z,69.51
2023-04-08T03:20:21.050Z,69.71
2023-04-08T03:22:47.676Z,69.67
2023-04-08T03:25:14.352Z,68.97
2023-04-08T03:27:40.944Z,68.61
2023-04-08T03:30:08.298Z,68.75
2023-04-08T03:32:35.440Z,68.32
2023-04-08T03:35:02.799Z,66.95
2023-04-08T03:37:29.402Z,66.77
2023-04-08T03:39:56.234Z,65.55
2023-04-08T03:42:23.238Z,65.29
2023-04-08T03:44:50.028Z,64.72
2023-04-08T03:47:16.772Z,64.20
2023-04-08T03:49:43.387Z,63.93
2023-04-08T03:52:09.922Z,63.28
2023-04-08T03:54:36.623Z,63.30
2023-04-08T03:57:03.271Z,65.89
2023-04-08T03:59:29.904Z,67.53
2023-04-08T04:01:56.636Z,68.36
2023-04-08T04:04:24.257Z,68.52
2023-04-08T04:06:50.940Z,71.01
2023-04-08T04:09:17.518Z,71.87
2023-04-08T04:11:44.112Z,71.62
2023-04-08T04:14:10.722Z,71.71
2023-04-08T04:16:37.375Z,72.59
2023-04-08T04:19:03.988Z,73.83
2023-04-08T04:21:30.598Z,74.54
2023-04-08T04:23:57.213Z,74.54
2023-04-08T04:26:23.878Z,75.25
2023-04-08T04:28:50.693Z,76.09
2023-04-08T04:31:27.973Z,75.59
2023-04-08T04:33:55.117Z,76.13
2023-04-08T04:36:21.786Z,74.78
2023-04-08T04:38:50.671Z,76.31
2023-04-08T04:41:17.697Z,76.76
2023-04-08T04:43:44.379Z,76.31
2023-04-08T04:46:11.176Z,76.77
2023-04-08T04:48:37.808Z,77.00
2023-04-08T04:51:04.547Z,76.31
2023-04-08T04:53:31.680Z,77.05
2023-04-08T04:55:58.584Z,76.92
2023-04-08T04:58:25.459Z,76.98
2023-04-08T05:00:52.116Z,76.57
2023-04-08T05:03:18.851Z,75.07
2023-04-08T05:05:46.012Z,76.61
2023-04-08T05:08:12.640Z,77.31
2023-04-08T05:10:41.404Z,74.84
2023-04-08T05:13:07.986Z,75.09
2023-04-08T05:15:35.688Z,74.69
2023-04-08T05:18:02.610Z,75.02
2023-04-08T05:20:29.737Z,75.05
2023-04-08T05:22:56.351Z,74.29
2023-04-08T05:25:22.926Z,74.41
2023-04-08T05:27:49.565Z,74.39
2023-04-08T05:30:16.883Z,75.25
2023-04-08T05:32:43.505Z,75.19
2023-04-08T05:35:10.526Z,73.45
2023-04-08T05:37:37.152Z,73.59
2023-04-08T05:40:04.100Z,73.72
2023-04-08T05:42:32.177Z,74.46
2023-04-08T05:44:58.912Z,73.15
2023-04-08T05:47:25.592Z,72.97
2023-04-08T05:49:55.090Z,72.90
2023-04-08T05:52:21.855Z,71.03
2023-04-08T05:54:48.418Z,72.90
2023-04-08T05:57:16.710Z,72.02
2023-04-08T05:59:43.277Z,72.67
2023-04-08T06:02:09.980Z,72.24
2023-04-08T06:04:36.692Z,71.85
2023-04-08T06:07:04.563Z,70.69
2023-04-08T06:09:31.140Z,69.65
2023-04-08T06:11:57.851Z,67.80
2023-04-08T06:14:24.434Z,65.51
2023-04-08T06:16:51.156Z,62.91
2023-04-08T06:19:18.001Z,63.42
2023-04-08T06:21:44.582Z,62.82
2023-04-08T06:24:11.131Z,60.71
2023-04-08T06:26:37.684Z,58.76
2023-04-08T06:29:05.131Z,57.37
2023-04-08T06:31:31.828Z,57.40
2023-04-08T06:33:58.457Z,56.65
2023-04-08T06:36:26.396Z,56.40
2023-04-08T06:38:52.956Z,55.59
2023-04-08T06:41:19.578Z,54.04
2023-04-08T06:43:46.143Z,54.56
2023-04-08T06:46:12.767Z,54.48
2023-04-08T06:48:40.302Z,55.10
2023-04-08T06:51:08.025Z,55.97
2023-04-08T06:53:34.972Z,56.25
2023-04-08T06:56:01.957Z,55.69
2023-04-08T06:58:29.765Z,54.63
2023-04-08T07:00:56.763Z,53.33
2023-04-08T07:03:24.084Z,51.93
2023-04-08T07:05:50.955Z,51.57
2023-04-08T07:08:17.507Z,52.88
2023-04-08T07:10:44.924Z,54.30
2023-04-08T07:13:11.744Z,54.38
2023-04-08T07:15:38.382Z,55.05
2023-04-08T07:18:06.168Z,54.85
2023-04-08T07:20:35.792Z,54.61
2023-04-08T07:23:02.449Z,54.42
2023-04-08T07:25:29.085Z,55.05
2023-04-08T07:27:56.241Z,55.43
2023-04-08T07:30:23.405Z,55.42
2023-04-08T07:32:50.021Z,55.34
2023-04-08T07:35:24.092Z,56.19
2023-04-08T07:37:54.506Z,56.59
2023-04-08T07:40:21.472Z,57.36
2023-04-08T07:42:48.058Z,55.60
2023-04-08T07:45:14.923Z,54.55
2023-04-08T07:47:41.662Z,53.04
2023-04-08T07:50:08.941Z,51.09
2023-04-08T07:52:35.518Z,50.16
2023-04-08T07:55:02.123Z,48.56
2023-04-08T07:57:29.045Z,46.76
2023-04-08T07:59:56.113Z,40.60
2023-04-08T08:02:23.060Z,45.08
2023-04-08T08:04:50.127Z,39.04
2023-04-08T08:07:16.980Z,44.57
2023-04-08T08:09:46.241Z,45.12
2023-04-08T08:12:13.240Z,41.70
2023-04-08T08:14:39.828Z,46.69
2023-04-08T08:17:08.527Z,42.37
2023-04-08T08:19:35.385Z,41.66
2023-04-08T08:22:03.633Z,38.70
2023-04-08T08:24:30.056Z,34.19
2023-04-08T08:26:56.667Z,39.59
2023-04-08T08:29:23.399Z,39.96
2023-04-08T08:31:50.277Z,38.90
2023-04-08T08:34:16.958Z,40.19
2023-04-08T08:36:43.552Z,43.40
2023-04-08T08:39:10.158Z,39.89
2023-04-08T08:41:37.876Z,39.81
2023-04-08T08:44:08.113Z,41.42
2023-04-08T08:46:34.894Z,34.97
2023-04-08T08:49:01.969Z,40.04
2023-04-08T08:51:30.062Z,36.44
2023-04-08T08:53:56.805Z,42.04
2023-04-08T08:56:23.446Z,37.66
2023-04-08T08:58:50.070Z,34.36
2023-04-08T09:01:49.359Z,29.70
2023-04-08T09:04:19.883Z,31.11
2023-04-08T09:06:50.039Z,30.64
2023-04-08T09:09:17.856Z,37.00
2023-04-08T09:11:47.188Z,31.93
2023-04-08T09:14:24.902Z,31.60
2023-04-08T09:16:52.361Z,30.78
2023-04-08T09:19:19.445Z,34.84
2023-04-08T09:21:47.405Z,35.17
2023-04-08T09:24:30.883Z,29.42
2023-04-08T09:26:57.720Z,29.03
2023-04-08T09:29:27.819Z,30.40
2023-04-08T09:31:57.581Z,27.73
2023-04-08T09:34:25.721Z,32.14
2023-04-08T09:36:53.108Z,30.36
2023-04-08T09:39:20.020Z,26.04
2023-04-08T09:41:49.572Z,23.25
2023-04-08T09:44:17.218Z,31.66
2023-04-08T09:46:49.770Z,23.77
2023-04-08T09:49:25.582Z,23.23
2023-04-08T09:52:07.627Z,24.42
2023-04-08T09:54:52.887Z,21.53
2023-04-08T09:57:28.764Z,22.43
2023-04-08T10:00:06.111Z,21.10
2023-04-08T10:02:41.176Z,22.08
2023-04-08T10:05:08.691Z,24.32
2023-04-08T10:07:37.102Z,28.05
2023-04-08T10:10:03.977Z,24.48
2023-04-08T10:12:30.995Z,24.36
2023-04-08T10:15:26.656Z,23.43
2023-04-08T10:17:54.609Z,24.33
2023-04-08T10:20:50.529Z,23.85
2023-04-08T10:23:22.974Z,25.04
2023-04-08T10:25:49.737Z,24.13
2023-04-08T10:28:18.950Z,27.58
2023-04-08T10:30:46.567Z,23.44
2023-04-08T10:33:47.649Z,25.00
2023-04-08T10:36:15.400Z,24.98
2023-04-08T10:38:42.787Z,24.95
2023-04-08T10:41:21.670Z,25.16
2023-04-08T10:43:48.479Z,25.31
2023-04-08T10:46:15.463Z,27.31
2023-04-08T10:48:42.110Z,26.59
2023-04-08T10:51:10.381Z,27.06
2023-04-08T10:53:39.735Z,27.48
2023-04-08T10:56:07.740Z,28.09
2023-04-08T10:58:48.532Z,27.69
2023-04-08T11:01:15.166Z,29.52
2023-04-08T11:03:43.367Z,27.82
2023-04-08T11:06:10.049Z,28.63
2023-04-08T11:08:37.062Z,28.59
2023-04-08T11:11:09.133Z,29.35
2023-04-08T11:13:37.275Z,29.26
2023-04-08T11:16:17.122Z,29.60
2023-04-08T11:18:46.143Z,28.48
2023-04-08T11:21:13.491Z,29.13
2023-04-08T11:23:42.185Z,29.43
2023-04-08T11:26:08.898Z,30.72
2023-04-08T11:28:35.790Z,30.01
2023-04-08T11:31:04.597Z,27.90
2023-04-08T11:33:32.172Z,28.06
2023-04-08T11:36:02.226Z,28.74
2023-04-08T11:38:29.378Z,30.50
2023-04-08T11:41:00.004Z,29.76
2023-04-08T11:43:27.140Z,29.83
2023-04-08T11:45:53.758Z,29.78
2023-04-08T11:48:20.386Z,31.53
2023-04-08T11:50:47.060Z,32.66
2023-04-08T11:53:20.737Z,33.01
2023-04-08T11:55:48.651Z,32.98
2023-04-08T11:58:15.866Z,33.90
2023-04-08T12:00:42.940Z,32.33
2023-04-08T12:03:10.451Z,32.32
2023-04-08T12:05:39.809Z,31.29
2023-04-08T12:08:06.870Z,31.51
2023-04-08T12:10:33.633Z,31.68
2023-04-08T12:13:01.238Z,31.24
2023-04-08T12:15:28.213Z,30.42
2023-04-08T12:17:54.933Z,30.35
2023-04-08T12:20:21.627Z,30.39
2023-04-08T12:22:49.240Z,30.21
2023-04-08T12:25:15.811Z,29.90
2023-04-08T12:27:43.250Z,30.01
2023-04-08T12:30:10.589Z,31.68
2023-04-08T12:32:39.233Z,31.96
2023-04-08T12:35:06.298Z,32.47
2023-04-08T12:37:33.524Z,32.66
2023-04-08T12:40:00.317Z,33.41
2023-04-08T12:42:28.075Z,32.04
2023-04-08T12:44:54.733Z,33.43
2023-04-08T12:47:21.324Z,32.27
2023-04-08T12:49:49.732Z,32.31
2023-04-08T12:52:17.469Z,31.43
2023-04-08T12:54:44.452Z,31.58
2023-04-08T12:57:14.094Z,31.74
2023-04-08T12:59:40.871Z,30.51
2023-04-08T13:02:08.051Z,30.98
2023-04-08T13:04:35.628Z,30.81
2023-04-08T13:07:02.466Z,30.71
2023-04-08T13:09:30.633Z,30.71
2023-04-08T13:11:58.328Z,31.61
2023-04-08T13:14:25.529Z,32.12
2023-04-08T13:16:52.382Z,34.10
2023-04-08T13:19:19.084Z,32.76
2023-04-08T13:21:46.346Z,32.96
2023-04-08T13:24:13.270Z,33.19
2023-04-08T13:26:39.924Z,33.61
2023-04-08T13:29:07.934Z,32.46
2023-04-08T13:31:34.690Z,31.16
2023-04-08T13:34:01.450Z,31.42
2023-04-08T13:36:29.417Z,31.23
2023-04-08T13:38:56.662Z,30.77
2023-04-08T13:41:23.488Z,30.46
2023-04-08T13:43:50.505Z,32.08
2023-04-08T13:46:18.099Z,31.94
2023-04-08T13:48:44.882Z,32.31
2023-04-08T13:51:11.755Z,32.18
2023-04-08T13:53:38.338Z,32.18
2023-04-08T13:56:05.377Z,32.86
2023-04-08T13:58:32.169Z,32.18
2023-04-08T14:00:58.932Z,31.88
2023-04-08T14:03:26.399Z,31.87
2023-04-08T14:05:53.789Z,32.18
2023-04-08T14:08:25.434Z,33.10
2023-04-08T14:10:53.092Z,33.24
2023-04-08T14:13:19.723Z,33.00
2023-04-08T14:15:46.929Z,32.21
2023-04-08T14:18:13.829Z,32.13
2023-04-08T14:20:40.480Z,33.09
2023-04-08T14:23:07.230Z,33.00
2023-04-08T14:25:33.852Z,32.86
2023-04-08T14:28:00.480Z,32.52
2023-04-08T14:30:27.513Z,32.45
2023-04-08T14:32:54.665Z,32.52
2023-04-08T14:35:21.880Z,32.92
2023-04-08T14:37:50.477Z,32.19
2023-04-08T14:40:17.102Z,32.38
2023-04-08T14:42:45.613Z,32.55
2023-04-08T14:45:12.191Z,31.88
2023-04-08T14:47:38.847Z,32.48
2023-04-08T14:50:06.237Z,32.29
2023-04-08T14:52:32.822Z,32.46
2023-04-08T14:54:59.491Z,32.52
2023-04-08T14:57:26.470Z,32.77
2023-04-08T14:59:56.008Z,32.75
2023-04-08T15:02:25.997Z,33.55
2023-04-08T15:04:54.408Z,33.27
2023-04-08T15:07:21.056Z,33.97
2023-04-08T15:09:47.675Z,34.44
2023-04-08T15:12:14.263Z,34.56
2023-04-08T15:14:41.047Z,34.03
2023-04-08T15:17:07.744Z,34.36
2023-04-08T15:19:34.437Z,34.16
2023-04-08T15:22:01.168Z,34.63
2023-04-08T15:24:27.721Z,35.42
2023-04-08T15:26:54.382Z,35.43
2023-04-08T15:29:23.306Z,35.63
2023-04-08T15:31:49.964Z,35.85
2023-04-08T15:34:16.876Z,39.28
2023-04-08T15:36:45.256Z,40.44
2023-04-08T15:39:12.322Z,41.16
2023-04-08T15:41:38.995Z,39.89
2023-04-08T15:44:05.900Z,39.18
2023-04-08T15:46:33.274Z,39.78
2023-04-08T15:49:01.396Z,39.10
2023-04-08T15:51:28.689Z,38.04
2023-04-08T15:53:55.423Z,38.85
2023-04-08T15:56:22.225Z,41.35
2023-04-08T15:58:48.975Z,44.44
2023-04-08T16:01:16.994Z,49.16
2023-04-08T16:03:43.810Z,51.27
2023-04-08T16:06:10.676Z,53.45
2023-04-08T16:08:37.812Z,57.69
2023-04-08T16:11:06.627Z,60.26
2023-04-08T16:13:34.349Z,60.60
2023-04-08T16:16:02.555Z,60.83
2023-04-08T16:18:29.870Z,60.61
2023-04-08T16:20:57.026Z,61.18
2023-04-08T16:23:23.908Z,58.89
2023-04-08T16:25:52.006Z,60.56
2023-04-08T16:28:19.043Z,65.06
2023-04-08T16:30:48.036Z,60.60
2023-04-08T16:33:15.068Z,63.06
2023-04-08T16:35:41.991Z,63.39
2023-04-08T16:38:08.949Z,63.04
2023-04-08T16:40:35.600Z,61.97
2023-04-08T16:43:08.166Z,66.45
2023-04-08T16:45:35.213Z,63.14
2023-04-08T16:48:02.566Z,66.55
2023-04-08T16:50:29.416Z,68.57
2023-04-08T16:52:56.884Z,68.45
2023-04-08T16:55:23.868Z,66.48
2023-04-08T16:57:53.334Z,66.81
2023-04-08T17:00:21.217Z,63.86
2023-04-08T17:02:54.172Z,68.46
2023-04-08T17:05:22.042Z,64.82
2023-04-08T17:07:48.938Z,65.30
2023-04-08T17:10:15.978Z,66.13
2023-04-08T17:12:42.574Z,63.18
2023-04-08T17:15:10.715Z,71.07
2023-04-08T17:17:37.477Z,71.49
2023-04-08T17:20:05.332Z,68.91
2023-04-08T17:22:32.258Z,69.43
2023-04-08T17:24:59.223Z,70.90
2023-04-08T17:27:26.059Z,69.46
2023-04-08T17:29:57.654Z,70.64
2023-04-08T17:32:25.186Z,69.25
2023-04-08T17:34:52.630Z,69.80
2023-04-08T17:37:19.877Z,70.41
2023-04-08T17:39:47.533Z,69.58
2023-04-08T17:42:14.396Z,70.80
2023-04-08T17:44:42.566Z,70.23
2023-04-08T17:47:09.130Z,72.42
2023-04-08T17:49:36.410Z,69.16
2023-04-08T17:52:03.409Z,71.34
2023-04-08T17:54:33.128Z,69.63
2023-04-08T17:57:00.963Z,69.74
2023-04-08T17:59:32.440Z,68.80
2023-04-08T18:01:59.521Z,69.97
2023-04-08T18:04:26.323Z,69.15
2023-04-08T18:06:53.192Z,70.68
2023-04-08T18:09:23.022Z,75.48
2023-04-08T18:11:52.225Z,78.77
2023-04-08T18:14:20.459Z,80.75
2023-04-08T18:16:53.625Z,78.95
2023-04-08T18:19:20.929Z,82.94
2023-04-08T18:21:47.573Z,83.02
2023-04-08T18:24:14.302Z,80.14
2023-04-08T18:26:41.461Z,76.63
2023-04-08T18:29:11.074Z,73.13
2023-04-08T18:31:38.094Z,78.27
2023-04-08T18:34:05.467Z,76.87
2023-04-08T18:36:32.552Z,76.25
2023-04-08T18:38:59.396Z,80.06
2023-04-08T18:41:27.048Z,80.48
2023-04-08T18:43:53.899Z,78.17
2023-04-08T18:46:20.744Z,76.43
2023-04-08T18:48:49.245Z,80.80
2023-04-08T18:51:19.163Z,82.15
2023-04-08T18:53:45.830Z,81.10
2023-04-08T18:56:23.998Z,80.62
2023-04-08T18:58:51.294Z,80.04
2023-04-08T19:01:18.188Z,82.01
2023-04-08T19:03:44.910Z,80.87
2023-04-08T19:06:13.137Z,78.36
2023-04-08T19:08:40.037Z,83.50
2023-04-08T19:11:06.690Z,84.51
2023-04-08T19:13:33.837Z,86.14
2023-04-08T19:16:00.527Z,86.40
2023-04-08T19:18:27.156Z,86.00
2023-04-08T19:20:54.123Z,84.50
2023-04-08T19:23:20.834Z,84.77
2023-04-08T19:25:47.601Z,84.10
2023-04-08T19:28:16.991Z,83.66
2023-04-08T19:30:43.647Z,83.39
2023-04-08T19:33:10.712Z,83.47
2023-04-08T19:35:37.844Z,83.61
2023-04-08T19:38:04.572Z,84.00
2023-04-08T19:40:31.238Z,82.76
2023-04-08T19:42:57.860Z,83.89
2023-04-08T19:45:24.486Z,81.34
2023-04-08T19:47:51.223Z,81.64
2023-04-08T19:50:18.096Z,81.18
2023-04-08T19:52:44.848Z,81.67
2023-04-08T19:55:11.888Z,81.86
2023-04-08T19:57:38.556Z,81.26
2023-04-08T20:00:05.653Z,81.56
2023-04-08T20:02:32.469Z,81.74
2023-04-08T20:04:59.201Z,82.91
2023-04-08T20:07:25.874Z,83.03
2023-04-08T20:09:52.412Z,84.87
2023-04-08T20:12:18.988Z,85.24
2023-04-08T20:14:45.916Z,86.91
2023-04-08T20:17:12.963Z,86.06
2023-04-08T20:19:40.340Z,88.17
2023-04-08T20:22:07.140Z,87.06
2023-04-08T20:24:33.737Z,87.06
2023-04-08T20:27:01.516Z,86.54
2023-04-08T20:29:28.683Z,85.00
2023-04-08T20:31:55.499Z,86.27
2023-04-08T20:34:22.201Z,84.74
2023-04-08T20:36:48.853Z,83.76
2023-04-08T20:39:15.475Z,83.42
2023-04-08T20:41:42.512Z,83.13
2023-04-08T20:44:10.676Z,84.96
2023-04-08T20:46:37.902Z,83.41
2023-04-08T20:49:05.825Z,86.39
2023-04-08T20:51:35.795Z,84.32
2023-04-08T20:54:02.486Z,85.04
2023-04-08T20:56:29.525Z,86.60
2023-04-08T20:59:05.432Z,84.64
2023-04-08T21:01:33.576Z,86.89
2023-04-08T21:04:00.754Z,85.52
2023-04-08T21:06:27.865Z,86.86
2023-04-08T21:08:54.607Z,85.84
2023-04-08T21:11:21.901Z,85.30
2023-04-08T21:13:49.223Z,84.72
2023-04-08T21:16:16.444Z,84.63
2023-04-08T21:18:43.223Z,84.61
2023-04-08T21:21:13.389Z,84.63
2023-04-08T21:23:40.033Z,84.42
2023-04-08T21:26:13.669Z,84.03
2023-04-08T21:28:40.781Z,83.59
2023-04-08T21:31:10.481Z,83.37
2023-04-08T21:33:37.866Z,83.00
2023-04-08T21:36:07.585Z,84.24
2023-04-08T21:38:37.368Z,83.82
2023-04-08T21:41:04.342Z,82.74
2023-04-08T21:43:31.549Z,82.50
2023-04-08T21:45:58.237Z,80.70
2023-04-08T21:48:24.921Z,79.48
2023-04-08T21:50:51.585Z,80.41
2023-04-08T21:56:14.067Z,80.08
2023-04-08T21:58:40.806Z,79.42
2023-04-08T22:01:07.656Z,78.15
2023-04-08T22:03:34.531Z,78.53
2023-04-08T22:06:01.405Z,77.76
2023-04-08T22:08:28.108Z,77.92
2023-04-08T22:10:54.667Z,77.46
2023-04-08T22:13:21.329Z,75.83
2023-04-08T22:15:48.033Z,76.03
2023-04-08T22:18:14.616Z,75.08
2023-04-08T22:20:41.692Z,75.90
2023-04-08T22:23:08.256Z,74.78
2023-04-08T22:25:34.831Z,75.68
2023-04-08T22:28:01.426Z,77.09
2023-04-08T22:30:28.067Z,77.01
2023-04-08T22:32:54.760Z,76.82
2023-04-08T22:35:21.449Z,77.96
2023-04-08T22:37:48.102Z,77.52
2023-04-08T22:40:14.750Z,76.95
2023-04-08T22:42:41.319Z,76.66
2023-04-08T22:45:08.117Z,77.65
2023-04-08T22:47:34.937Z,77.88
2023-04-08T22:50:01.521Z,77.68
2023-04-08T22:52:28.109Z,78.58
2023-04-08T22:54:54.691Z,79.08
2023-04-08T22:57:21.345Z,77.33
2023-04-08T22:59:48.005Z,76.93
2023-04-08T23:02:14.741Z,76.04
2023-04-08T23:04:41.374Z,76.02
2023-04-08T23:07:07.925Z,77.61
2023-04-08T23:09:36.519Z,77.83
2023-04-08T23:12:03.146Z,77.32
2023-04-08T23:14:29.698Z,78.60
2023-04-08T23:16:56.375Z,78.54
2023-04-08T23:19:23.008Z,78.25
2023-04-08T23:21:49.599Z,76.98
2023-04-08T23:24:16.314Z,75.50
2023-04-08T23:26:42.869Z,74.81
2023-04-08T23:29:09.696Z,74.13
2023-04-08T23:31:36.418Z,73.83
2023-04-08T23:34:03.165Z,73.00
2023-04-08T23:36:29.714Z,73.26
2023-04-08T23:38:56.292Z,73.63
2023-04-08T23:41:22.953Z,71.79
2023-04-08T23:43:49.887Z,72.98
2023-04-08T23:46:16.820Z,74.33
2023-04-08T23:48:43.405Z,76.80
2023-04-08T23:51:11.834Z,78.57
2023-04-08T23:53:38.520Z,78.92
2023-04-08T23:56:09.658Z,80.41
2023-04-08T23:58:36.438Z,80.71
